Huvudsida
METAR-TAF:

METAR-TAF

Flygplatser :

Røsts flygplats

Røst, Norge

latitud: 67-31N, longitud: 012-06E, höjd: 4 m

Aktuellt väderrapport

Denna rapport gjordes för 4 timmar och 55 minuter sedan, klockan 07:50 UTC
Vind 23 kt från väst i byarna ända upp till 33 kt
Temperatur 6°C
Fuktighet 81%
Tryck 990 hPa
Sikt 10 km eller mer
Få moln på en höjd av 1500 ft
Spridda moln på en höjd av 2200 ft, Högtornande cumulus.
Spridda moln på en höjd av 2800 ft
lätta regnskurar

METAR: ENRS 220750Z 27023G33KT 9999 -SHRA FEW015 SCT022TCU SCT028 06/03 Q0990

Tid: 14:45 (12:45 UTC)


TAF: saknas

Aktuella väderrapporter och prognoser från 4000 flygplatser (METAR- och TAF-rapporter).

De tillgängliga stationerna syns som gula och röda prickar på kartan.

För musen över prickarna för att se namnen på stationerna.

Klicka sedan för att få väderrapporter och prognoser.

För att ändra kartan: Klicka på de gröna knapparna med ett svart kors på för att zooma in; den gröna knappen med ett streck på för att zooma ut; eller på de gröna pilarna för angränsande kartor.


METAR-TAF: